Time;durP1;ratioP1;P1;durP2;ratioP2;P2;SDS_P1;SDS_P2;PMS_P1;PMS_P2;Temp;Humidity;BMP_temperature;BMP_pressure;BME280_temperature;BME280_humidity;BME280_pressure;Samples;Min_cycle;Max_cycle;Signal;HPM_P1;HPM_P2
2021/07/06 00:00:43;;;;;;;28.38;19.30;;;;;;;20.61;71.35;100294.53;1707266;82;25760;-78
2021/07/06 00:03:11;;;;;;;27.50;19.50;;;;;;;20.58;71.36;100298.28;1684341;83;25846;-78
2021/07/06 00:05:38;;;;;;;23.83;18.55;;;;;;;20.49;71.41;100289.77;1676142;83;25941;-78
2021/07/06 00:08:05;;;;;;;23.22;18.15;;;;;;;20.43;71.69;100297.62;1672830;83;27453;-78
2021/07/06 00:10:35;;;;;;;23.87;17.80;;;;;;;20.40;71.88;100302.77;1709236;83;25880;-78
2021/07/06 00:13:02;;;;;;;17.85;15.53;;;;;;;20.36;71.95;100307.09;1663779;83;25951;-78
2021/07/06 00:15:31;;;;;;;29.70;17.37;;;;;;;20.35;72.06;100306.79;1686018;84;26542;-77
2021/07/06 00:17:58;;;;;;;21.40;16.65;;;;;;;20.34;72.10;100305.13;1661835;83;25968;-78
2021/07/06 00:20:27;;;;;;;20.37;15.75;;;;;;;20.35;72.21;100305.42;1717618;83;27433;-78
2021/07/06 00:22:56;;;;;;;21.65;15.80;;;;;;;20.36;72.21;100304.36;1668675;83;25970;-78
2021/07/06 00:25:24;;;;;;;22.32;16.00;;;;;;;20.37;72.16;100305.98;1684169;83;25566;-78
2021/07/06 00:27:53;;;;;;;26.70;18.92;;;;;;;20.35;72.07;100308.98;1670409;83;26512;-78
2021/07/06 00:30:20;;;;;;;35.23;20.48;;;;;;;20.35;72.18;100314.95;1708570;83;25785;-78
2021/07/06 00:32:47;;;;;;;25.57;17.02;;;;;;;20.33;72.13;100311.66;1685235;82;27639;-78
2021/07/06 00:35:14;;;;;;;22.50;14.85;;;;;;;20.33;72.25;100310.31;1680151;83;25979;-78
2021/07/06 00:37:41;;;;;;;25.55;17.65;;;;;;;20.31;72.21;100311.94;1673462;83;25898;-78
2021/07/06 00:40:09;;;;;;;30.62;20.10;;;;;;;20.32;72.27;100313.56;1713006;83;26357;-78
2021/07/06 00:42:43;;;;;;;27.32;18.25;;;;;;;20.28;72.20;100311.08;1671561;82;25902;-78
2021/07/06 00:45:12;;;;;;;20.88;16.80;;;;;;;20.25;72.27;100306.70;1665679;83;27577;-78
2021/07/06 00:47:41;;;;;;;17.55;15.60;;;;;;;20.19;72.24;100305.77;1649538;83;25839;-77
2021/07/06 00:50:19;;;;;;;21.12;14.68;;;;;;;20.18;72.26;100308.76;1707779;83;26335;-78
2021/07/06 00:52:46;;;;;;;19.52;14.50;;;;;;;20.15;72.24;100306.01;1674344;83;25830;-78
2021/07/06 00:55:13;;;;;;;19.87;14.07;;;;;;;20.12;72.27;100311.98;1695506;83;25821;-78
2021/07/06 00:57:41;;;;;;;16.75;14.53;;;;;;;20.06;72.21;100312.97;1663490;83;26860;-78
2021/07/06 01:00:16;;;;;;;17.45;14.45;;;;;;;19.97;72.19;100315.89;1703034;83;25718;-78
2021/07/06 01:02:43;;;;;;;18.35;14.38;;;;;;;19.89;72.28;100321.22;1683132;83;25638;-78
2021/07/06 01:05:15;;;;;;;20.02;14.00;;;;;;;19.82;72.52;100323.30;1684618;83;26447;-78
2021/07/06 01:07:42;;;;;;;19.10;13.88;;;;;;;19.74;72.54;100318.31;1686031;83;25834;-77
2021/07/06 01:10:11;;;;;;;19.55;14.50;;;;;;;19.70;72.77;100325.34;1684007;83;27472;-78
2021/07/06 01:12:38;;;;;;;18.05;15.03;;;;;;;19.66;72.93;100326.09;1668186;83;26567;-78
2021/07/06 01:15:10;;;;;;;18.15;14.73;;;;;;;19.60;72.96;100323.03;1699381;83;25834;-78
2021/07/06 01:17:39;;;;;;;17.85;14.90;;;;;;;19.55;73.07;100325.14;1646948;83;26456;-78
2021/07/06 01:20:14;;;;;;;20.12;15.00;;;;;;;19.50;73.12;100333.25;1707520;83;25896;-78
2021/07/06 01:26:52;;;;;;;19.17;14.85;;;;;;;19.42;73.40;100326.86;1700820;83;25781;-78
2021/07/06 01:29:20;;;;;;;18.92;14.78;;;;;;;19.32;73.60;100333.48;1704437;83;25794;-77
2021/07/06 01:31:52;;;;;;;19.40;15.40;;;;;;;19.27;73.68;100330.69;1701958;83;26478;-78
2021/07/06 01:34:19;;;;;;;18.32;14.83;;;;;;;19.24;73.51;100329.32;1689832;83;25908;-77
2021/07/06 01:36:47;;;;;;;17.40;15.50;;;;;;;19.20;73.65;100317.84;1628633;83;28026;-78
2021/07/06 01:39:19;;;;;;;17.92;15.85;;;;;;;19.16;73.73;100313.98;1706549;83;25888;-78
2021/07/06 01:41:46;;;;;;;25.08;17.42;;;;;;;19.12;73.78;100309.58;1704625;83;25892;-78
2021/07/06 01:44:22;;;;;;;23.07;17.20;;;;;;;19.10;73.97;100316.32;1643054;83;26450;-77
2021/07/06 01:46:49;;;;;;;19.20;16.82;;;;;;;19.08;74.22;100313.03;1701477;83;25368;-78
2021/07/06 01:49:17;;;;;;;23.10;16.70;;;;;;;19.11;74.40;100317.98;1710426;83;27715;-77
2021/07/06 01:51:45;;;;;;;19.87;16.52;;;;;;;19.12;74.42;100319.08;1707828;83;25883;-78
2021/07/06 01:54:14;;;;;;;18.95;16.97;;;;;;;19.11;74.34;100319.34;1644047;84;25898;-78
2021/07/06 01:56:44;;;;;;;17.67;15.32;;;;;;;19.08;74.36;100321.17;1682062;82;26643;-78
2021/07/06 01:59:12;;;;;;;21.23;17.07;;;;;;;19.04;74.41;100314.08;1710859;83;25821;-78
2021/07/06 02:01:40;;;;;;;22.48;18.02;;;;;;;19.02;74.50;100324.36;1709044;83;27629;-78
2021/07/06 02:04:07;;;;;;;19.85;16.90;;;;;;;18.99;74.60;100323.48;1646606;83;26466;-78
2021/07/06 02:06:34;;;;;;;19.40;16.95;;;;;;;18.93;74.58;100327.73;1663600;83;26625;-77
2021/07/06 02:09:02;;;;;;;20.00;17.02;;;;;;;18.86;74.60;100323.82;1732996;81;26460;-78
2021/07/06 02:11:30;;;;;;;21.77;18.12;;;;;;;18.83;74.78;100327.05;1734668;81;25715;-78
2021/07/06 02:13:57;;;;;;;18.67;16.70;;;;;;;18.81;74.97;100337.86;1636720;84;27602;-78
2021/07/06 02:16:24;;;;;;;19.67;17.07;;;;;;;18.80;75.02;100334.84;1682455;82;25959;-77
2021/07/06 02:18:51;;;;;;;22.27;17.92;;;;;;;18.78;75.11;100342.41;1731153;81;25798;-78
2021/07/06 02:23:47;;;;;;;18.17;16.27;;;;;;;18.78;75.21;100341.87;1760261;79;26466;-78
2021/07/06 02:26:14;;;;;;;24.00;16.85;;;;;;;18.73;75.20;100343.17;1732165;81;26477;-78
2021/07/06 02:28:42;;;;;;;24.05;18.60;;;;;;;18.71;75.19;100342.56;1703694;80;27622;-79
2021/07/06 02:31:09;;;;;;;21.70;18.70;;;;;;;18.68;75.39;100345.79;1749110;80;26336;-79
2021/07/06 02:33:36;;;;;;;18.42;16.55;;;;;;;18.65;75.56;100344.11;1737673;81;26517;-78
2021/07/06 02:36:07;;;;;;;19.07;17.12;;;;;;;18.62;75.48;100344.59;1706063;81;26294;-78
2021/07/06 02:38:37;;;;;;;19.98;16.50;;;;;;;18.57;75.27;100348.03;1694372;81;25983;-78
2021/07/06 02:41:05;;;;;;;20.43;17.12;;;;;;;18.53;75.39;100351.48;1704842;81;28260;-78
2021/07/06 02:43:32;;;;;;;19.95;16.77;;;;;;;18.48;75.39;100352.77;1732903;81;25902;-78
2021/07/06 02:45:59;;;;;;;21.33;16.93;;;;;;;18.43;75.47;100351.55;1683398;81;25423;-78
2021/07/06 02:48:27;;;;;;;19.77;16.35;;;;;;;18.39;75.51;100355.02;1664878;81;25789;-78
2021/07/06 02:50:54;;;;;;;21.80;18.17;;;;;;;18.35;75.59;100357.89;1709640;81;25851;-78
2021/07/06 02:53:21;;;;;;;20.12;18.02;;;;;;;18.34;75.90;100356.27;1726637;81;27719;-79
2021/07/06 02:55:48;;;;;;;23.75;19.10;;;;;;;18.31;76.01;100357.57;1704647;82;25872;-78
2021/07/06 02:58:15;;;;;;;21.70;19.07;;;;;;;18.30;76.14;100360.53;1716257;81;25849;-78
2021/07/06 03:00:42;;;;;;;24.18;20.82;;;;;;;18.29;76.33;100362.94;1696608;81;26013;-79
2021/07/06 03:03:10;;;;;;;21.93;19.62;;;;;;;18.29;76.46;100366.48;1737529;81;25700;-78
2021/07/06 03:05:38;;;;;;;20.50;18.35;;;;;;;18.27;76.50;100367.78;1704049;81;27365;-79
2021/07/06 03:08:06;;;;;;;22.40;18.25;;;;;;;18.24;76.53;100364.22;1663647;81;25856;-79
2021/07/06 03:10:37;;;;;;;22.02;19.73;;;;;;;18.24;76.68;100376.42;1695969;81;26519;-78
2021/07/06 03:13:07;;;;;;;21.35;18.65;;;;;;;18.24;76.69;100379.94;1730621;81;25834;-78
2021/07/06 03:15:34;;;;;;;22.17;19.37;;;;;;;18.25;76.79;100380.23;1710412;81;25840;-78
2021/07/06 03:18:04;;;;;;;22.82;20.02;;;;;;;18.24;76.84;100371.80;1665076;81;27447;-78
2021/07/06 03:20:32;;;;;;;19.92;17.82;;;;;;;18.24;76.85;100375.06;1736142;81;25802;-78
2021/07/06 03:22:59;;;;;;;23.60;20.35;;;;;;;18.21;76.92;100375.01;1732490;81;25574;-78
2021/07/06 03:25:28;;;;;;;23.38;19.52;;;;;;;18.24;77.00;100384.55;1722892;81;25794;-79
2021/07/06 03:27:57;;;;;;;22.07;19.67;;;;;;;18.26;77.22;100387.29;1689386;81;25803;-78
2021/07/06 03:30:28;;;;;;;24.67;21.15;;;;;;;18.29;77.30;100394.95;1686432;81;27476;-78
2021/07/06 03:32:59;;;;;;;27.42;20.95;;;;;;;18.34;77.60;100397.77;1737420;81;25915;-78
2021/07/06 03:35:27;;;;;;;22.87;20.43;;;;;;;18.41;77.64;100397.08;1698542;81;26085;-78
2021/07/06 03:37:57;;;;;;;23.15;19.45;;;;;;;18.45;77.65;100402.33;1698859;81;26222;-78
2021/07/06 03:40:26;;;;;;;20.93;18.73;;;;;;;18.60;77.75;100399.63;1706549;81;25741;-78
2021/07/06 03:42:53;;;;;;;22.13;18.40;;;;;;;18.60;77.75;100399.63;1733372;81;27565;-78
2021/07/06 03:45:22;;;;;;;21.68;18.55;;;;;;;18.66;77.81;100404.08;1706340;81;25829;-78
2021/07/06 03:47:50;;;;;;;22.98;19.98;;;;;;;18.73;77.76;100405.58;1636072;81;25369;-78
2021/07/06 03:50:20;;;;;;;21.90;19.60;;;;;;;18.78;77.66;100406.17;1707614;81;25766;-78
2021/07/06 03:52:50;;;;;;;25.88;19.23;;;;;;;18.82;77.75;100418.22;1737739;81;26077;-78
2021/07/06 03:55:18;;;;;;;21.90;18.50;;;;;;;18.88;77.82;100415.31;1697026;81;27376;-78
2021/07/06 03:57:46;;;;;;;25.15;18.98;;;;;;;18.95;77.79;100413.28;1686755;81;26497;-79
2021/07/06 04:00:17;;;;;;;20.50;18.23;;;;;;;19.01;77.89;100414.20;1714889;81;25740;-78
2021/07/06 04:02:44;;;;;;;21.65;18.87;;;;;;;19.06;77.88;100414.27;1730484;81;26135;-78
2021/07/06 04:05:13;;;;;;;20.85;18.52;;;;;;;19.11;77.88;100418.44;1725859;81;25853;-78
2021/07/06 04:07:41;;;;;;;24.63;19.70;;;;;;;19.15;77.93;100420.94;1700832;81;27603;-79
2021/07/06 04:10:11;;;;;;;24.92;19.17;;;;;;;19.22;78.00;100420.25;1695081;81;26059;-78
2021/07/06 04:12:39;;;;;;;20.77;18.57;;;;;;;19.33;78.36;100426.66;1734699;81;25699;-78
2021/07/06 04:15:09;;;;;;;21.93;18.62;;;;;;;19.42;78.42;100429.29;1707830;81;25965;-79
2021/07/06 04:17:37;;;;;;;20.63;17.73;;;;;;;19.50;78.44;100423.43;1682484;81;25795;-79
2021/07/06 04:20:10;;;;;;;22.42;17.60;;;;;;;19.59;78.67;100422.73;1699920;81;27571;-78
2021/07/06 04:22:37;;;;;;;22.35;18.07;;;;;;;19.66;78.82;100425.28;1737520;81;26294;-79
2021/07/06 04:25:07;;;;;;;22.67;18.25;;;;;;;19.75;78.97;100427.33;1710155;81;25770;-79
2021/07/06 04:27:35;;;;;;;23.07;18.50;;;;;;;19.83;78.90;100422.81;1658860;81;25848;-78
2021/07/06 04:30:04;;;;;;;22.67;19.30;;;;;;;19.91;78.83;100421.02;1703998;81;25831;-79
2021/07/06 04:32:31;;;;;;;20.43;18.17;;;;;;;19.97;78.19;100422.72;1741172;81;27439;-79
2021/07/06 04:34:58;;;;;;;19.25;16.62;;;;;;;20.03;78.23;100423.63;1711447;81;26605;-78
2021/07/06 04:37:25;;;;;;;19.07;16.77;;;;;;;20.08;77.88;100429.67;1685680;81;25924;-78
2021/07/06 04:39:52;;;;;;;18.87;16.97;;;;;;;20.15;77.85;100431.64;1701401;81;25793;-79
2021/07/06 04:42:19;;;;;;;21.10;18.90;;;;;;;20.21;77.71;100429.33;1734375;81;26359;-78
2021/07/06 04:44:46;;;;;;;20.70;18.00;;;;;;;20.26;77.34;100427.47;1714348;81;27553;-79
2021/07/06 04:47:14;;;;;;;20.70;18.55;;;;;;;20.34;77.58;100428.91;1658398;81;25952;-78
2021/07/06 04:49:41;;;;;;;20.45;18.20;;;;;;;20.41;77.39;100429.55;1704428;81;25691;-78
2021/07/06 04:52:08;;;;;;;29.37;18.48;;;;;;;20.45;77.39;100434.23;1737395;81;26417;-78
2021/07/06 04:54:35;;;;;;;21.10;18.77;;;;;;;20.55;77.36;100436.25;1714951;81;25880;-78
2021/07/06 04:57:02;;;;;;;25.10;18.40;;;;;;;20.63;77.18;100436.61;1657504;81;28234;-79
2021/07/06 04:59:29;;;;;;;24.02;19.82;;;;;;;20.69;76.92;100434.75;1714043;81;25873;-78
2021/07/06 05:01:56;;;;;;;21.10;18.92;;;;;;;20.76;76.82;100436.17;1741400;81;25948;-78
2021/07/06 05:04:23;;;;;;;21.90;19.23;;;;;;;20.82;76.72;100431.62;1713278;81;25887;-78
2021/07/06 05:06:50;;;;;;;24.47;17.50;;;;;;;20.87;76.20;100434.38;1685693;81;25788;-78
2021/07/06 05:09:17;;;;;;;22.52;17.67;;;;;;;20.95;76.14;100435.82;1718145;81;27527;-78
2021/07/06 05:11:44;;;;;;;20.97;18.02;;;;;;;21.03;76.01;100436.20;1742955;81;26511;-78
2021/07/06 05:14:11;;;;;;;19.23;16.93;;;;;;;21.13;76.15;100436.81;1710523;81;26749;-78
2021/07/06 05:16:38;;;;;;;22.80;17.87;;;;;;;21.18;75.51;100443.14;1675204;81;25750;-78
2021/07/06 05:19:06;;;;;;;19.73;16.95;;;;;;;21.22;75.63;100443.44;1722711;81;25961;-78
2021/07/06 05:21:33;;;;;;;21.52;16.52;;;;;;;21.23;75.35;100444.56;1738809;81;27547;-78
2021/07/06 05:24:00;;;;;;;19.75;17.65;;;;;;;21.25;75.19;100447.84;1713410;81;26668;-78
2021/07/06 05:26:27;;;;;;;18.27;16.37;;;;;;;21.28;75.17;100448.66;1692711;81;25869;-78
2021/07/06 05:28:54;;;;;;;19.05;16.05;;;;;;;21.33;74.84;100450.61;1701516;81;25905;-78
2021/07/06 05:31:21;;;;;;;21.87;17.82;;;;;;;21.39;74.81;100452.29;1728838;81;25979;-78
2021/07/06 05:33:48;;;;;;;17.55;15.68;;;;;;;21.51;75.59;100452.95;1708345;81;28293;-78
2021/07/06 05:36:15;;;;;;;17.52;15.18;;;;;;;21.60;74.95;100457.37;1691653;81;25805;-78
2021/07/06 05:38:42;;;;;;;21.55;17.42;;;;;;;21.67;75.26;100463.39;1701618;81;25802;-78
2021/07/06 05:41:09;;;;;;;18.80;16.67;;;;;;;21.76;74.33;100455.01;1740984;81;25783;-78
2021/07/06 05:43:36;;;;;;;22.27;15.78;;;;;;;21.85;74.64;100457.55;1739196;81;26428;-77
2021/07/06 05:46:03;;;;;;;17.02;15.28;;;;;;;21.96;74.72;100460.05;1686567;81;27576;-78
2021/07/06 05:48:31;;;;;;;18.67;15.85;;;;;;;22.05;73.61;100463.10;1701942;81;25995;-78
2021/07/06 05:50:58;;;;;;;17.32;14.70;;;;;;;22.15;73.31;100452.27;1735435;81;26153;-78
2021/07/06 05:53:25;;;;;;;16.93;14.98;;;;;;;22.25;73.30;100461.84;1688967;83;25831;-79
2021/07/06 05:55:52;;;;;;;16.67;14.68;;;;;;;22.34;73.01;100462.98;1675016;81;25828;-78
2021/07/06 05:58:19;;;;;;;14.65;13.15;;;;;;;22.45;72.83;100466.57;1739439;81;27535;-78
2021/07/06 06:00:46;;;;;;;20.05;14.45;;;;;;;22.54;72.47;100470.43;1711695;81;25918;-78
2021/07/06 06:03:13;;;;;;;14.93;12.90;;;;;;;22.63;72.32;100467.46;1673047;81;25685;-78
2021/07/06 06:05:41;;;;;;;18.70;14.93;;;;;;;22.72;71.97;100465.86;1693888;81;26080;-78
2021/07/06 06:08:09;;;;;;;17.05;13.28;;;;;;;22.84;72.00;100465.88;1743557;81;25790;-78
2021/07/06 06:10:36;;;;;;;21.52;15.35;;;;;;;22.97;71.69;100468.09;1738013;81;28252;-78
2021/07/06 06:13:03;;;;;;;16.55;14.60;;;;;;;23.08;71.54;100458.53;1685667;81;26113;-78
2021/07/06 06:15:31;;;;;;;19.05;15.65;;;;;;;23.16;70.41;100467.58;1724340;81;26596;-78
2021/07/06 06:17:58;;;;;;;19.75;15.70;;;;;;;23.22;70.00;100470.05;1741084;81;25948;-77
2021/07/06 06:20:25;;;;;;;15.65;13.90;;;;;;;23.30;69.66;100474.13;1741704;81;25272;-78
2021/07/06 06:22:52;;;;;;;17.50;12.78;;;;;;;23.37;69.83;100465.15;1664888;81;27608;-78
2021/07/06 06:25:19;;;;;;;14.85;11.95;;;;;;;23.48;69.17;100468.95;1677823;81;25941;-78
2021/07/06 06:27:46;;;;;;;16.75;12.73;;;;;;;23.57;69.17;100467.31;1738153;81;25790;-78
2021/07/06 06:30:14;;;;;;;17.17;12.60;;;;;;;23.66;68.66;100470.31;1713159;81;26240;-78
2021/07/06 06:32:41;;;;;;;14.33;11.15;;;;;;;23.75;69.02;100464.02;1662416;81;25902;-78
2021/07/06 06:35:10;;;;;;;12.82;10.32;;;;;;;23.83;68.92;100470.00;1711759;81;27670;-78
2021/07/06 06:37:37;;;;;;;12.28;10.98;;;;;;;23.91;67.54;100466.15;1738393;81;25731;-78
2021/07/06 06:40:07;;;;;;;12.20;9.58;;;;;;;23.95;66.66;100464.49;1738438;81;26380;-78
2021/07/06 06:42:35;;;;;;;11.90;9.33;;;;;;;24.03;65.90;100466.69;1687471;81;26186;-78
2021/07/06 06:45:03;;;;;;;13.70;10.68;;;;;;;24.11;65.41;100467.50;1721548;81;25883;-79
2021/07/06 06:47:31;;;;;;;11.05;9.95;;;;;;;24.17;65.18;100461.45;1739677;81;28177;-78
2021/07/06 06:49:58;;;;;;;10.05;9.05;;;;;;;24.22;64.52;100462.81;1737066;81;25847;-78
2021/07/06 06:52:25;;;;;;;11.45;10.18;;;;;;;24.28;63.91;100463.88;1682999;81;25845;-78
2021/07/06 06:54:52;;;;;;;11.70;9.85;;;;;;;24.28;63.23;100470.73;1728224;81;25853;-78
2021/07/06 06:57:21;;;;;;;11.35;9.35;;;;;;;24.27;62.81;100474.55;1735182;81;25792;-78
2021/07/06 06:59:49;;;;;;;9.70;8.70;;;;;;;24.29;63.72;100475.09;1739754;81;28089;-78
2021/07/06 07:02:21;;;;;;;12.10;9.55;;;;;;;24.40;63.83;100467.10;1714339;81;25904;-78
2021/07/06 07:04:48;;;;;;;8.93;8.03;;;;;;;24.48;62.86;100465.72;1705114;81;25826;-78
2021/07/06 07:07:17;;;;;;;10.58;8.90;;;;;;;24.54;63.36;100464.59;1745138;81;25653;-78
2021/07/06 07:09:44;;;;;;;13.00;9.48;;;;;;;24.62;63.28;100472.75;1736805;81;25744;-78
2021/07/06 07:12:12;;;;;;;10.72;9.63;;;;;;;24.65;62.95;100477.13;1699855;81;27451;-78
2021/07/06 07:14:39;;;;;;;12.18;9.53;;;;;;;24.70;62.06;100474.92;1706803;81;25812;-78
2021/07/06 07:17:07;;;;;;;10.30;8.98;;;;;;;24.74;62.87;100476.84;1731648;81;25578;-78
2021/07/06 07:19:35;;;;;;;10.35;9.50;;;;;;;24.83;62.49;100480.61;1714762;81;26237;-77
2021/07/06 07:22:04;;;;;;;11.10;9.10;;;;;;;24.89;61.49;100476.72;1671341;81;26493;-78
2021/07/06 07:24:31;;;;;;;12.60;10.08;;;;;;;24.88;61.87;100479.21;1700671;82;27187;-78
2021/07/06 07:26:59;;;;;;;10.80;9.78;;;;;;;24.93;62.01;100474.25;1728202;82;26102;-78
2021/07/06 07:29:26;;;;;;;14.40;8.68;;;;;;;25.00;61.77;100477.50;1730406;82;25823;-77
2021/07/06 07:31:54;;;;;;;10.65;8.13;;;;;;;25.07;62.27;100480.72;1670544;82;25850;-77
2021/07/06 07:34:21;;;;;;;11.22;9.48;;;;;;;25.16;62.11;100480.39;1698401;82;25839;-77
2021/07/06 07:36:48;;;;;;;9.95;9.03;;;;;;;25.23;61.55;100489.12;1709859;82;27541;-77
2021/07/06 07:39:15;;;;;;;9.73;8.78;;;;;;;25.26;61.84;100489.90;1703405;82;25937;-77
2021/07/06 07:41:42;;;;;;;9.88;8.23;;;;;;;25.31;62.04;100491.24;1682332;83;26038;-77
2021/07/06 07:44:11;;;;;;;9.95;8.43;;;;;;;25.38;61.10;100491.74;1676339;83;26496;-77
2021/07/06 07:46:38;;;;;;;9.35;7.95;;;;;;;25.44;60.28;100496.11;1730684;82;26213;-77
2021/07/06 07:49:05;;;;;;;10.10;8.23;;;;;;;25.47;60.79;100501.58;1724654;82;27555;-77
2021/07/06 07:51:32;;;;;;;9.18;8.18;;;;;;;25.50;61.16;100497.70;1676106;82;25942;-77
2021/07/06 07:53:59;;;;;;;10.35;8.78;;;;;;;25.54;60.53;100502.88;1699922;82;26524;-77
2021/07/06 07:56:26;;;;;;;9.93;8.50;;;;;;;25.53;59.36;100496.30;1728702;82;25966;-78
2021/07/06 07:58:53;;;;;;;10.23;8.88;;;;;;;25.53;59.44;100501.25;1719783;82;26005;-77
2021/07/06 08:01:20;;;;;;;9.25;8.35;;;;;;;25.61;60.18;100496.50;1676727;82;27556;-77
2021/07/06 08:03:47;;;;;;;9.88;8.13;;;;;;;25.68;59.95;100505.78;1681376;82;25920;-77
2021/07/06 08:06:14;;;;;;;9.63;8.58;;;;;;;25.76;60.12;100503.23;1731022;82;26570;-77
2021/07/06 08:08:42;;;;;;;9.80;7.22;;;;;;;25.85;59.13;100500.09;1703660;82;26833;-77
2021/07/06 08:11:09;;;;;;;10.40;8.75;;;;;;;25.84;58.49;100497.65;1682251;82;25953;-77
2021/07/06 08:13:36;;;;;;;9.53;8.58;;;;;;;25.86;59.15;100504.49;1659059;82;27505;-77
2021/07/06 08:16:03;;;;;;;9.85;8.83;;;;;;;25.88;59.20;100508.31;1730674;82;25953;-77
2021/07/06 08:18:30;;;;;;;9.88;8.88;;;;;;;25.90;58.47;100502.80;1732942;82;26535;-77
2021/07/06 08:20:57;;;;;;;10.43;7.85;;;;;;;25.95;59.28;100504.67;1674249;82;25876;-78
2021/07/06 08:23:25;;;;;;;9.00;7.78;;;;;;;26.07;59.32;100494.69;1697525;83;25849;-77
2021/07/06 08:25:52;;;;;;;7.40;6.65;;;;;;;26.13;57.84;100492.17;1730394;81;27085;-77
2021/07/06 08:28:22;;;;;;;8.98;8.18;;;;;;;26.12;58.11;100484.48;1733957;81;25764;-77
2021/07/06 08:30:49;;;;;;;10.80;7.62;;;;;;;26.17;58.30;100483.06;1664503;81;25892;-77
2021/07/06 08:33:16;;;;;;;12.63;7.58;;;;;;;26.26;59.03;100488.73;1688698;81;25852;-77
2021/07/06 08:35:43;;;;;;;9.73;7.95;;;;;;;26.34;57.31;100486.70;1741273;81;25931;-77
2021/07/06 08:38:11;;;;;;;8.58;7.67;;;;;;;26.32;56.69;100489.75;1736637;81;28236;-77
2021/07/06 08:40:38;;;;;;;8.90;7.87;;;;;;;26.29;57.02;100484.83;1724982;81;26364;-77
2021/07/06 08:43:06;;;;;;;8.65;7.85;;;;;;;26.31;57.61;100488.09;1647572;81;25979;-78
2021/07/06 08:45:34;;;;;;;10.95;7.03;;;;;;;26.35;56.85;100492.44;1736941;81;25515;-77
2021/07/06 08:48:01;;;;;;;7.40;6.67;;;;;;;26.38;56.44;100498.73;1694551;81;25876;-78
2021/07/06 08:50:29;;;;;;;6.80;6.17;;;;;;;26.37;56.22;100496.53;1667922;81;28200;-76
2021/07/06 08:52:56;;;;;;;8.15;5.97;;;;;;;26.37;56.62;100498.45;1701883;81;25336;-76
2021/07/06 08:55:23;;;;;;;7.08;5.60;;;;;;;26.44;55.97;100503.05;1724493;81;25832;-76
2021/07/06 08:57:54;;;;;;;5.92;5.42;;;;;;;26.48;55.63;100496.67;1735384;81;25747;-76
2021/07/06 09:00:23;;;;;;;8.63;6.08;;;;;;;26.57;55.76;100500.41;1656020;81;26235;-77
2021/07/06 09:03:00;;;;;;;7.37;5.67;;;;;;;26.67;56.03;100494.77;1701932;81;27615;-77
2021/07/06 09:05:28;;;;;;;6.08;5.47;;;;;;;26.75;55.28;100495.52;1733289;81;25811;-77
2021/07/06 09:07:56;;;;;;;6.10;5.28;;;;;;;26.78;55.50;100495.48;1737862;81;26501;-77
2021/07/06 09:10:38;;;;;;;5.37;4.87;;;;;;;26.80;54.49;100491.88;1684260;81;26457;-77
2021/07/06 09:13:33;;;;;;;4.30;3.90;;;;;;;26.81;53.37;100496.28;1654074;81;25877;-77
2021/07/06 09:16:03;;;;;;;9.45;3.87;;;;;;;26.78;52.64;100501.53;1740740;81;27500;-77
2021/07/06 09:18:31;;;;;;;4.10;3.80;;;;;;;26.78;52.57;100496.03;1690926;81;25861;-76
2021/07/06 09:21:08;;;;;;;7.83;4.83;;;;;;;26.84;51.97;100497.63;1672365;81;25944;-77
2021/07/06 09:23:40;;;;;;;4.70;4.05;;;;;;;26.90;51.65;100495.05;1683875;81;25773;-76
2021/07/06 09:26:18;;;;;;;5.10;4.53;;;;;;;26.97;52.49;100496.86;1725825;81;25998;-77
2021/07/06 09:28:57;;;;;;;5.80;3.95;;;;;;;27.09;52.25;100501.37;1706228;81;27464;-76
2021/07/06 09:31:37;;;;;;;5.62;4.22;;;;;;;27.10;50.80;100501.06;1702304;81;25787;-77
2021/07/06 09:34:09;;;;;;;4.70;4.25;;;;;;;27.12;52.06;100498.00;1733924;81;25326;-77
2021/07/06 09:36:46;;;;;;;4.35;3.95;;;;;;;27.24;52.72;100503.33;1652071;84;25931;-77
2021/07/06 09:39:24;;;;;;;8.75;4.12;;;;;;;27.26;50.82;100496.15;1653626;84;25869;-77
2021/07/06 09:42:04;;;;;;;5.95;3.65;;;;;;;27.28;51.21;100499.42;1660137;84;27556;-77
2021/07/06 09:44:39;;;;;;;5.65;4.05;;;;;;;27.38;51.34;100504.78;1676168;84;25799;-76
2021/07/06 09:47:12;;;;;;;4.75;3.90;;;;;;;27.43;50.83;100505.53;1648100;84;25914;-76
2021/07/06 09:49:44;;;;;;;3.70;3.40;;;;;;;27.46;51.11;100506.28;1639570;84;25877;-76
2021/07/06 09:52:19;;;;;;;4.47;3.17;;;;;;;27.55;50.70;100505.05;1656738;84;25891;-77
2021/07/06 09:54:49;;;;;;;3.72;3.40;;;;;;;27.53;49.97;100507.28;1677576;84;27218;-76
2021/07/06 10:00:11;;;;;;;4.37;3.98;;;;;;;27.58;50.16;100503.62;1653198;84;26598;-76
2021/07/06 10:02:44;;;;;;;4.85;4.30;;;;;;;27.51;49.83;100505.39;1663287;84;26545;-77
2021/07/06 10:05:18;;;;;;;6.30;3.90;;;;;;;27.41;50.46;100506.39;1677650;84;26599;-77
2021/07/06 10:07:45;;;;;;;5.90;4.00;;;;;;;27.42;50.53;100507.19;1632288;84;28129;-78
2021/07/06 10:10:15;;;;;;;4.72;4.22;;;;;;;27.48;50.34;100504.60;1658454;84;25785;-78
2021/07/06 10:12:45;;;;;;;4.65;3.85;;;;;;;27.58;49.89;100501.70;1653151;84;25809;-78
2021/07/06 10:15:15;;;;;;;4.15;3.70;;;;;;;27.68;49.13;100502.89;1676051;84;25714;-78
2021/07/06 10:17:43;;;;;;;4.13;3.30;;;;;;;27.76;49.74;100500.81;1654445;84;25835;-78
2021/07/06 10:20:14;;;;;;;3.92;3.62;;;;;;;27.81;49.99;100495.78;1650629;84;28223;-78
2021/07/06 10:22:41;;;;;;;3.72;3.42;;;;;;;27.81;50.23;100496.61;1632094;84;25869;-78
2021/07/06 10:25:10;;;;;;;7.25;4.10;;;;;;;27.87;50.95;100495.94;1670747;84;25839;-78
2021/07/06 10:27:43;;;;;;;3.52;3.20;;;;;;;28.01;50.66;100491.31;1648501;85;26122;-78
2021/07/06 10:30:20;;;;;;;3.45;2.83;;;;;;;28.12;50.76;100492.76;1658685;85;26527;-78
2021/07/06 10:32:51;;;;;;;5.12;3.50;;;;;;;28.18;49.36;100477.20;1690782;83;27476;-78
2021/07/06 10:35:43;;;;;;;4.47;3.83;;;;;;;28.30;49.75;100484.12;1680565;84;25905;-78
2021/07/06 10:38:33;;;;;;;4.30;3.47;;;;;;;28.37;48.97;100481.22;1657242;84;26365;-78
2021/07/06 10:41:36;;;;;;;5.22;3.35;;;;;;;28.31;48.39;100485.21;1650406;84;26285;-78
2021/07/06 10:44:06;;;;;;;3.65;3.30;;;;;;;28.20;47.02;100479.64;1636865;84;25956;-78
2021/07/06 10:46:43;;;;;;;5.75;3.12;;;;;;;27.95;47.45;100482.28;1682240;84;27518;-78
2021/07/06 10:49:31;;;;;;;3.98;3.17;;;;;;;27.82;47.35;100480.33;1641856;86;25807;-78
2021/07/06 10:52:01;;;;;;;4.10;2.40;;;;;;;27.84;47.77;100477.30;1648460;83;26617;-78
2021/07/06 10:54:33;;;;;;;3.25;2.45;;;;;;;27.90;47.98;100476.07;1656455;84;25998;-78
2021/07/06 10:57:11;;;;;;;3.65;3.05;;;;;;;27.97;46.99;100476.53;1667834;85;25731;-78
2021/07/06 10:59:38;;;;;;;3.58;2.58;;;;;;;28.02;47.56;100477.23;1647704;85;27396;-78
2021/07/06 11:02:13;;;;;;;2.33;2.17;;;;;;;28.14;47.93;100480.29;1636133;85;25883;-78
2021/07/06 11:04:46;;;;;;;2.15;2.02;;;;;;;28.29;47.46;100477.81;1674974;83;25839;-78
2021/07/06 11:07:37;;;;;;;2.27;2.08;;;;;;;28.43;46.48;100477.78;1693002;83;26104;-78
2021/07/06 11:10:08;;;;;;;2.27;2.08;;;;;;;28.53;47.04;100479.77;1648187;85;25818;-78
2021/07/06 11:12:38;;;;;;;2.20;1.87;;;;;;;28.61;45.53;100476.34;1657206;83;27503;-78
2021/07/06 11:15:16;;;;;;;5.30;1.97;;;;;;;28.66;44.93;100474.83;1621136;85;25926;-77
2021/07/06 11:17:48;;;;;;;6.47;2.60;;;;;;;28.65;45.59;100476.52;1683467;85;26170;-78
2021/07/06 11:20:34;;;;;;;2.65;2.45;;;;;;;28.65;45.05;100478.73;1638745;85;26258;-78
2021/07/06 11:23:02;;;;;;;3.85;2.42;;;;;;;28.65;45.76;100482.03;1623467;85;26755;-79
2021/07/06 11:25:35;;;;;;;2.75;2.35;;;;;;;28.64;45.02;100481.77;1662241;83;28269;-78
2021/07/06 11:28:14;;;;;;;3.62;2.77;;;;;;;28.59;44.60;100468.91;1678414;84;25996;-79
2021/07/06 11:30:55;;;;;;;2.20;2.02;;;;;;;28.61;45.07;100468.06;1658339;83;25807;-78
2021/07/06 11:33:27;;;;;;;2.50;2.30;;;;;;;28.67;44.96;100468.20;1643809;85;25829;-79